createdAt,value
2018-02-22T00:00:40.552Z,89.92
2018-02-22T00:01:40.519Z,89.92
2018-02-22T00:02:40.483Z,89.92
2018-02-22T00:03:40.448Z,89.83
2018-02-22T00:04:40.415Z,89.83
2018-02-22T00:05:40.381Z,89.92
2018-02-22T00:06:40.344Z,90.11
2018-02-22T00:07:40.310Z,90.11
2018-02-22T00:08:40.277Z,89.92
2018-02-22T00:09:40.249Z,89.92
2018-02-22T00:10:40.207Z,90.11
2018-02-22T00:11:40.174Z,90.11
2018-02-22T00:12:40.138Z,90.3
2018-02-22T00:13:40.323Z,90.11
2018-02-22T00:14:40.077Z,90.21
2018-02-22T00:15:40.042Z,90.21
2018-02-22T00:16:40.100Z,90.59
2018-02-22T00:17:39.968Z,90.68
2018-02-22T00:18:39.936Z,90.77
2018-02-22T00:19:39.897Z,90.4
2018-02-22T00:20:39.862Z,90.59
2018-02-22T00:21:39.831Z,90.68
2018-02-22T00:22:39.796Z,90.87
2018-02-22T00:23:39.760Z,91.15
2018-02-22T00:24:39.727Z,90.68
2018-02-22T00:25:39.689Z,90.82
2018-02-22T00:26:39.661Z,91.01
2018-02-22T00:27:39.619Z,91.01
2018-02-22T00:28:39.584Z,90.82
2018-02-22T00:29:39.552Z,90.82
2018-02-22T00:30:39.270Z,90.64
2018-02-22T00:31:39.632Z,91.2
2018-02-22T00:32:39.447Z,91.2
2018-02-22T00:33:39.416Z,90.92
2018-02-22T00:34:39.378Z,90.92
2018-02-22T00:35:39.343Z,90.82
2018-02-22T00:36:39.309Z,91.11
2018-02-22T00:37:39.287Z,91.01
2018-02-22T00:38:39.240Z,91.01
2018-02-22T00:39:39.208Z,91.2
2018-02-22T00:40:39.169Z,91.77
2018-02-22T00:41:39.135Z,91.39
2018-02-22T00:42:39.100Z,91.77
2018-02-22T00:43:38.817Z,91.86
2018-02-22T00:44:39.031Z,91.67
2018-02-22T00:45:38.995Z,91.58
2018-02-22T00:46:38.960Z,91.49
2018-02-22T00:47:38.678Z,92.14
2018-02-22T00:48:38.913Z,92.14
2018-02-22T00:49:38.862Z,91.58
2018-02-22T00:50:38.821Z,92.05
2018-02-22T00:51:38.788Z,91.58
2018-02-22T00:52:38.751Z,91.58
2018-02-22T00:53:38.717Z,91.49
2018-02-22T00:54:38.684Z,91.39
2018-02-22T00:55:38.647Z,92.24
2018-02-22T00:56:38.363Z,91.96
2018-02-22T00:57:38.578Z,92.05
2018-02-22T00:58:38.542Z,92.24
2018-02-22T00:59:38.510Z,91.86
2018-02-22T01:00:38.473Z,92.05
2018-02-22T01:01:38.440Z,92.05
2018-02-22T01:02:38.403Z,92.24
2018-02-22T01:03:38.375Z,92.24
2018-02-22T01:04:38.333Z,92.33
2018-02-22T01:05:38.054Z,92.61
2018-02-22T01:06:38.263Z,92.8
2018-02-22T01:07:38.229Z,92.71
2018-02-22T01:08:38.201Z,92.43
2018-02-22T01:09:38.159Z,92.71
2018-02-22T01:10:37.878Z,92.8
2018-02-22T01:11:38.091Z,92.61
2018-02-22T01:12:38.055Z,92.43
2018-02-22T01:13:38.021Z,92.52
2018-02-22T01:14:37.985Z,92.8
2018-02-22T01:15:37.702Z,92.14
2018-02-22T01:16:37.916Z,92.61
2018-02-22T01:17:37.879Z,92.99
2018-02-22T01:18:37.845Z,92.99
2018-02-22T01:19:37.808Z,92.9
2018-02-22T01:20:37.781Z,93.09
2018-02-22T01:21:37.743Z,92.9
2018-02-22T01:22:37.707Z,92.8
2018-02-22T01:23:37.672Z,92.99
2018-02-22T01:24:37.386Z,92.71
2018-02-22T01:25:37.602Z,93.28
2018-02-22T01:26:37.567Z,93.28
2018-02-22T01:27:37.531Z,92.61
2018-02-22T01:28:37.497Z,93.28
2018-02-22T01:29:37.464Z,92.52
2018-02-22T01:30:37.426Z,93.28
2018-02-22T01:31:37.396Z,93.09
2018-02-22T01:32:37.357Z,92.8
2018-02-22T01:33:37.334Z,92.99
2018-02-22T01:34:37.288Z,93.09
2018-02-22T01:35:37.254Z,92.71
2018-02-22T01:36:37.218Z,92.8
2018-02-22T01:37:37.181Z,92.9
2018-02-22T01:38:37.147Z,92.99
2018-02-22T01:39:37.118Z,93.18
2018-02-22T01:40:37.078Z,93.28
2018-02-22T01:41:37.043Z,93.28
2018-02-22T01:42:37.008Z,93.28
2018-02-22T01:43:36.974Z,93.37
2018-02-22T01:44:36.939Z,93.37
2018-02-22T01:45:36.906Z,93.28
2018-02-22T01:46:36.867Z,93.18
2018-02-22T01:47:36.586Z,93.09
2018-02-22T01:48:36.796Z,92.99
2018-02-22T01:49:36.762Z,93.09
2018-02-22T01:50:36.478Z,93.37
2018-02-22T01:51:36.690Z,93.56
2018-02-22T01:52:36.662Z,93.09
2018-02-22T01:53:36.621Z,93.56
2018-02-22T01:54:36.591Z,93.66
2018-02-22T01:55:36.550Z,93.47
2018-02-22T01:56:36.520Z,93.56
2018-02-22T01:57:36.481Z,93.37
2018-02-22T01:58:36.449Z,93.56
2018-02-22T01:59:36.411Z,93.56
2018-02-22T02:00:36.376Z,93.37
2018-02-22T02:01:36.344Z,94.03
2018-02-22T02:02:36.306Z,93.75
2018-02-22T02:03:36.271Z,93.84
2018-02-22T02:04:36.236Z,93.75
2018-02-22T02:05:36.198Z,93.75
2018-02-22T02:06:36.166Z,93.75
2018-02-22T02:07:36.131Z,93.75
2018-02-22T02:08:36.096Z,93.75
2018-02-22T02:09:36.061Z,94.03
2018-02-22T02:10:36.026Z,94.03
2018-02-22T02:11:36.136Z,94.03
2018-02-22T02:12:35.956Z,93.84
2018-02-22T02:13:35.919Z,93.37
2018-02-22T02:14:35.885Z,93.66
2018-02-22T02:15:35.849Z,93.66
2018-02-22T02:16:35.816Z,93.75
2018-02-22T02:17:35.786Z,94.03
2018-02-22T02:18:35.496Z,94.22
2018-02-22T02:19:35.763Z,94.13
2018-02-22T02:20:35.674Z,94.03
2018-02-22T02:21:35.391Z,94.13
2018-02-22T02:22:35.608Z,93.75
2018-02-22T02:23:35.567Z,94.22
2018-02-22T02:24:35.534Z,93.66
2018-02-22T02:25:35.251Z,94.22
2018-02-22T02:26:35.213Z,94.41
2018-02-22T02:27:35.180Z,94.13
2018-02-22T02:28:35.397Z,94.51
2018-02-22T02:29:35.109Z,94.7
2018-02-22T02:30:35.325Z,94.32
2018-02-22T02:31:35.294Z,94.51
2018-02-22T02:32:35.256Z,94.7
2018-02-22T02:33:35.219Z,94.6
2018-02-22T02:34:35.184Z,94.7
2018-02-22T02:35:35.148Z,94.6
2018-02-22T02:36:35.112Z,94.51
2018-02-22T02:37:35.082Z,94.22
2018-02-22T02:38:35.043Z,94.6
2018-02-22T02:39:35.008Z,94.7
2018-02-22T02:40:34.974Z,94.98
2018-02-22T02:41:34.935Z,95.26
2018-02-22T02:42:34.905Z,95.07
2018-02-22T02:43:34.616Z,95.07
2018-02-22T02:44:34.581Z,95.07
2018-02-22T02:45:34.795Z,95.07
2018-02-22T02:46:34.764Z,95.17
2018-02-22T02:47:34.723Z,95.07
2018-02-22T02:48:34.689Z,95.54
2018-02-22T02:49:34.659Z,95.64
2018-02-22T02:50:34.620Z,95.83
2018-02-22T02:51:34.583Z,95.64
2018-02-22T02:52:34.550Z,95.45
2018-02-22T02:53:34.515Z,95.64
2018-02-22T02:54:34.476Z,95.64
2018-02-22T02:55:34.443Z,95.64
2018-02-22T02:56:34.409Z,95.64
2018-02-22T02:57:34.370Z,95.36
2018-02-22T02:58:34.336Z,95.64
2018-02-22T02:59:34.300Z,95.64
2018-02-22T03:00:34.268Z,95.64
2018-02-22T03:01:34.233Z,95.45
2018-02-22T03:02:34.198Z,95.83
2018-02-22T03:03:34.164Z,95.54
2018-02-22T03:04:34.124Z,95.26
2018-02-22T03:05:34.095Z,95.45
2018-02-22T03:06:34.050Z,95.73
2018-02-22T03:07:34.029Z,95.45
2018-02-22T03:08:33.982Z,95.45
2018-02-22T03:09:33.945Z,95.45
2018-02-22T03:10:33.911Z,95.54
2018-02-22T03:11:33.875Z,95.64
2018-02-22T03:12:33.843Z,95.64
2018-02-22T03:13:33.805Z,95.73
2018-02-22T03:14:33.768Z,95.73
2018-02-22T03:15:33.733Z,95.36
2018-02-22T03:16:33.700Z,95.54
2018-02-22T03:17:33.416Z,95.54
2018-02-22T03:18:33.626Z,95.92
2018-02-22T03:19:33.343Z,95.73
2018-02-22T03:20:33.557Z,95.73
2018-02-22T03:21:33.521Z,95.73
2018-02-22T03:22:33.485Z,95.92
2018-02-22T03:23:33.202Z,95.64
2018-02-22T03:24:33.417Z,95.64
2018-02-22T03:25:33.382Z,95.83
2018-02-22T03:26:33.348Z,96.01
2018-02-22T03:27:33.061Z,96.11
2018-02-22T03:28:33.276Z,95.83
2018-02-22T03:29:33.240Z,95.54
2018-02-22T03:30:32.955Z,95.45
2018-02-22T03:31:33.178Z,96.39
2018-02-22T03:32:33.133Z,95.73
2018-02-22T03:33:33.099Z,95.64
2018-02-22T03:34:33.062Z,96.39
2018-02-22T03:35:33.028Z,96.39
2018-02-22T03:36:32.997Z,96.39
2018-02-22T03:37:32.962Z,96.49
2018-02-22T03:38:32.921Z,96.39
2018-02-22T03:39:32.888Z,96.49
2018-02-22T03:40:32.852Z,95.92
2018-02-22T03:41:32.814Z,96.2
2018-02-22T03:42:32.531Z,96.11
2018-02-22T03:43:32.748Z,96.39
2018-02-22T03:44:32.710Z,96.2
2018-02-22T03:45:32.676Z,96.3
2018-02-22T03:46:32.637Z,96.3
2018-02-22T03:47:32.604Z,96.2
2018-02-22T03:48:32.318Z,95.92
2018-02-22T03:49:32.541Z,96.01
2018-02-22T03:50:32.252Z,95.64
2018-02-22T03:51:32.463Z,96.49
2018-02-22T03:52:32.428Z,96.3
2018-02-22T03:53:32.390Z,96.49
2018-02-22T03:54:32.454Z,96.39
2018-02-22T03:55:32.332Z,96.39
2018-02-22T03:56:32.285Z,96.39
2018-02-22T03:57:32.248Z,96.96
2018-02-22T03:58:32.212Z,97.05
2018-02-22T03:59:31.930Z,95.92
2018-02-22T04:00:32.151Z,96.68
2018-02-22T04:01:32.113Z,96.53
2018-02-22T04:02:32.071Z,96.11
2018-02-22T04:03:32.036Z,96.2
2018-02-22T04:04:32.002Z,96.25
2018-02-22T04:05:31.968Z,96.15
2018-02-22T04:06:31.929Z,96.34
2018-02-22T04:07:31.893Z,96.49
2018-02-22T04:08:31.859Z,96.72
2018-02-22T04:09:31.823Z,96.72
2018-02-22T04:10:31.787Z,96.63
2018-02-22T04:11:31.750Z,96.44
2018-02-22T04:12:31.717Z,96.53
2018-02-22T04:13:31.685Z,96.44
2018-02-22T04:14:31.647Z,96.53
2018-02-22T04:15:31.610Z,96.25
2018-02-22T04:16:31.573Z,96.63
2018-02-22T04:17:31.537Z,96.81
2018-02-22T04:18:31.508Z,96.81
2018-02-22T04:19:31.469Z,96.44
2018-02-22T04:20:31.434Z,96.44
2018-02-22T04:21:31.394Z,96.63
2018-02-22T04:22:31.361Z,96.63
2018-02-22T04:23:31.361Z,96.63
2018-02-22T04:24:31.288Z,96.34
2018-02-22T04:25:31.254Z,96.72
2018-02-22T04:26:31.221Z,96.44
2018-02-22T04:27:31.184Z,96.34
2018-02-22T04:28:31.150Z,96.91
2018-02-22T04:29:31.110Z,96.91
2018-02-22T04:30:31.079Z,96.72
2018-02-22T04:31:31.042Z,97.1
2018-02-22T04:32:31.074Z,97.1
2018-02-22T04:33:30.968Z,97
2018-02-22T04:34:30.938Z,97
2018-02-22T04:35:30.900Z,97.19
2018-02-22T04:36:30.867Z,96.91
2018-02-22T04:37:30.830Z,97
2018-02-22T04:38:30.793Z,97.29
2018-02-22T04:39:30.756Z,97.38
2018-02-22T04:40:30.721Z,97
2018-02-22T04:41:30.740Z,96.91
2018-02-22T04:42:30.400Z,97
2018-02-22T04:43:30.617Z,97.1
2018-02-22T04:44:30.581Z,97.1
2018-02-22T04:45:30.543Z,97
2018-02-22T04:46:30.507Z,97.67
2018-02-22T04:47:30.471Z,97.38
2018-02-22T04:48:30.436Z,97.57
2018-02-22T04:49:30.400Z,97.48
2018-02-22T04:50:30.422Z,97.57
2018-02-22T04:51:30.329Z,97.76
2018-02-22T04:52:30.292Z,97.53
2018-02-22T04:53:30.258Z,97.48
2018-02-22T04:54:30.221Z,97.38
2018-02-22T04:55:30.186Z,97.72
2018-02-22T04:56:30.151Z,97.57
2018-02-22T04:57:30.113Z,97.76
2018-02-22T04:58:30.082Z,97.57
2018-02-22T04:59:30.041Z,97.38
2018-02-22T05:00:30.012Z,97.57
2018-02-22T05:01:29.972Z,97.48
2018-02-22T05:02:29.936Z,97.29
2018-02-22T05:03:29.901Z,97.34
2018-02-22T05:04:29.864Z,97.34
2018-02-22T05:05:29.828Z,97.48
2018-02-22T05:06:29.791Z,97.29
2018-02-22T05:07:29.758Z,97.57
2018-02-22T05:08:29.727Z,97.38
2018-02-22T05:09:29.686Z,97.38
2018-02-22T05:10:29.691Z,97.67
2018-02-22T05:11:29.617Z,97.91
2018-02-22T05:12:30.032Z,97.57
2018-02-22T05:13:29.554Z,97.57
2018-02-22T05:14:29.509Z,97.76
2018-02-22T05:15:29.473Z,97.76
2018-02-22T05:16:29.437Z,97.76
2018-02-22T05:17:29.405Z,97.85
2018-02-22T05:18:29.366Z,97.76
2018-02-22T05:19:29.328Z,97.85
2018-02-22T05:20:29.296Z,97.85
2018-02-22T05:21:29.262Z,97.57
2018-02-22T05:22:29.227Z,97.85
2018-02-22T05:23:29.188Z,98.23
2018-02-22T05:24:29.156Z,98.04
2018-02-22T05:25:29.116Z,97.85
2018-02-22T05:26:29.081Z,98.61
2018-02-22T05:27:29.045Z,98.23
2018-02-22T05:28:29.011Z,98.33
2018-02-22T05:29:28.996Z,98.33
2018-02-22T05:30:28.938Z,98.23
2018-02-22T05:31:28.904Z,98.04
2018-02-22T05:32:28.870Z,98.33
2018-02-22T05:33:28.837Z,98.42
2018-02-22T05:34:28.795Z,98.33
2018-02-22T05:35:28.758Z,98.04
2018-02-22T05:36:28.728Z,98.04
2018-02-22T05:37:28.690Z,97.95
2018-02-22T05:38:28.653Z,97.95
2018-02-22T05:39:28.618Z,97.85
2018-02-22T05:40:28.581Z,97.85
2018-02-22T05:41:28.297Z,98.61
2018-02-22T05:42:28.621Z,98.23
2018-02-22T05:43:28.473Z,98.61
2018-02-22T05:44:28.442Z,98.42
2018-02-22T05:45:28.405Z,98.71
2018-02-22T05:46:28.378Z,98.71
2018-02-22T05:47:28.331Z,98.71
2018-02-22T05:48:28.302Z,98.71
2018-02-22T05:49:28.263Z,98.71
2018-02-22T05:50:28.226Z,98.71
2018-02-22T05:51:28.190Z,98.8
2018-02-22T05:52:28.156Z,98.99
2018-02-22T05:53:28.118Z,98.61
2018-02-22T05:54:28.082Z,98.8
2018-02-22T05:55:28.046Z,98.71
2018-02-22T05:56:28.009Z,99.08
2018-02-22T05:57:27.973Z,99.37
2018-02-22T05:58:27.938Z,99.27
2018-02-22T05:59:27.904Z,99.27
2018-02-22T06:00:27.617Z,98.52
2018-02-22T06:01:27.833Z,99.18
2018-02-22T06:02:27.547Z,98.99
2018-02-22T06:03:27.766Z,99.08
2018-02-22T06:04:27.475Z,99.08
2018-02-22T06:05:27.687Z,99.18
2018-02-22T06:06:27.653Z,99.08
2018-02-22T06:07:27.616Z,98.8
2018-02-22T06:08:27.579Z,98.99
2018-02-22T06:09:27.295Z,99.37
2018-02-22T06:10:27.510Z,99.27
2018-02-22T06:11:27.471Z,98.99
2018-02-22T06:12:27.436Z,98.9
2018-02-22T06:13:27.650Z,98.8
2018-02-22T06:14:27.365Z,99.08
2018-02-22T06:15:27.329Z,99.08
2018-02-22T06:16:27.297Z,98.8
2018-02-22T06:17:27.257Z,99.27
2018-02-22T06:18:27.222Z,99.18
2018-02-22T06:19:26.938Z,99.37
2018-02-22T06:20:27.151Z,99.37
2018-02-22T06:21:27.115Z,99.27
2018-02-22T06:22:27.124Z,99.27
2018-02-22T06:23:27.044Z,99.46
2018-02-22T06:24:26.758Z,99.37
2018-02-22T06:25:26.969Z,99.27
2018-02-22T06:26:26.934Z,99.18
2018-02-22T06:27:26.660Z,99.18
2018-02-22T06:28:26.874Z,99.08
2018-02-22T06:29:26.828Z,99.18
2018-02-22T06:30:26.792Z,99.18
2018-02-22T06:31:26.507Z,98.99
2018-02-22T06:32:26.724Z,98.99
2018-02-22T06:33:26.691Z,99.18
2018-02-22T06:34:26.402Z,99.27
2018-02-22T06:35:26.615Z,99.08
2018-02-22T06:36:26.578Z,98.8
2018-02-22T06:37:26.546Z,99.65
2018-02-22T06:38:26.510Z,98.99
2018-02-22T06:39:26.475Z,99.27
2018-02-22T06:40:26.442Z,99.46
2018-02-22T06:41:26.405Z,99.65
2018-02-22T06:42:26.365Z,99.46
2018-02-22T06:43:26.328Z,99.55
2018-02-22T06:44:26.292Z,99.37
2018-02-22T06:45:26.266Z,99.65
2018-02-22T06:46:26.222Z,99.55
2018-02-22T06:47:26.186Z,99.46
2018-02-22T06:48:26.152Z,99.84
2018-02-22T06:49:26.115Z,99.55
2018-02-22T06:50:26.080Z,99.46
2018-02-22T06:51:26.042Z,99.37
2018-02-22T06:52:26.057Z,99.46
2018-02-22T06:53:25.974Z,99.37
2018-02-22T06:54:25.938Z,99.37
2018-02-22T06:55:25.900Z,99.46
2018-02-22T06:56:25.865Z,99.55
2018-02-22T06:57:25.831Z,99.37
2018-02-22T06:58:25.805Z,99.37
2018-02-22T06:59:25.759Z,99.46
2018-02-22T07:00:25.723Z,99.55
2018-02-22T07:01:25.688Z,99.46
2018-02-22T07:02:25.652Z,99.37
2018-02-22T07:03:25.616Z,99.46
2018-02-22T07:04:25.581Z,99.46
2018-02-22T07:05:25.544Z,99.55
2018-02-22T07:06:25.556Z,99.37
2018-02-22T07:07:25.555Z,99.55
2018-02-22T07:08:25.524Z,99.55
2018-02-22T07:09:25.629Z,99.18
2018-02-22T07:10:25.368Z,99.6
2018-02-22T07:11:25.338Z,99.46
2018-02-22T07:12:25.297Z,99.27
2018-02-22T07:13:25.264Z,99.27
2018-02-22T07:14:25.221Z,99.46
2018-02-22T07:15:25.193Z,99.46
2018-02-22T07:16:25.160Z,99.46
2018-02-22T07:17:25.119Z,99.51
2018-02-22T07:18:24.836Z,99.6
2018-02-22T07:19:24.800Z,99.51
2018-02-22T07:20:25.015Z,99.41
2018-02-22T07:21:24.977Z,99.6
2018-02-22T07:22:24.695Z,99.7
2018-02-22T07:23:24.939Z,99.51
2018-02-22T07:24:24.623Z,99.51
2018-02-22T07:25:24.848Z,99.6
2018-02-22T07:26:24.803Z,99.6
2018-02-22T07:27:24.629Z,99.51
2018-02-22T07:28:24.914Z,98.85
2018-02-22T07:29:24.633Z,98.94
2018-02-22T07:30:24.661Z,98.94
2018-02-22T07:31:25.204Z,99.04
2018-02-22T07:32:24.960Z,98.85
2018-02-22T07:33:24.554Z,99.04
2018-02-22T07:34:24.521Z,99.13
2018-02-22T07:35:24.485Z,99.13
2018-02-22T07:36:24.460Z,99.13
2018-02-22T07:37:24.418Z,99.22
2018-02-22T07:38:24.483Z,99.04
2018-02-22T07:39:24.455Z,99.41
2018-02-22T07:40:24.310Z,99.41
2018-02-22T07:41:24.275Z,98.85
2018-02-22T07:42:23.993Z,98.94
2018-02-22T07:43:23.958Z,99.22
2018-02-22T07:44:24.172Z,99.41
2018-02-22T07:45:24.087Z,99.22
2018-02-22T07:46:24.234Z,99.04
2018-02-22T07:47:24.068Z,98.75
2018-02-22T07:48:24.032Z,98.94
2018-02-22T07:49:23.996Z,98.75
2018-02-22T07:50:23.719Z,98.66
2018-02-22T07:51:23.931Z,98.57
2018-02-22T07:52:24.032Z,98.85
2018-02-22T07:53:23.614Z,99.22
2018-02-22T07:54:23.822Z,98.1
2018-02-22T07:55:23.540Z,98.47
2018-02-22T07:56:23.755Z,98.38
2018-02-22T07:57:23.719Z,98.19
2018-02-22T07:58:23.687Z,98
2018-02-22T07:59:23.410Z,98
2018-02-22T08:00:24.344Z,98
2018-02-22T08:01:23.581Z,98.1
2018-02-22T08:02:23.549Z,98.38
2018-02-22T08:03:23.517Z,98.19
2018-02-22T08:04:23.475Z,97.81
2018-02-22T08:05:23.443Z,98
2018-02-22T08:06:23.414Z,97.91
2018-02-22T08:07:23.375Z,97.81
2018-02-22T08:08:23.343Z,98.1
2018-02-22T08:09:23.058Z,97.62
2018-02-22T08:10:23.277Z,97.72
2018-02-22T08:11:22.989Z,97.43
2018-02-22T08:12:23.203Z,97.53
2018-02-22T08:13:23.170Z,97.24
2018-02-22T08:14:23.134Z,97.53
2018-02-22T08:15:23.320Z,97.53
2018-02-22T08:16:23.067Z,97.43
2018-02-22T08:17:22.789Z,97.67
2018-02-22T08:18:22.913Z,97.62
2018-02-22T08:19:23.365Z,96.96
2018-02-22T08:20:22.931Z,97.1
2018-02-22T08:21:22.941Z,97.29
2018-02-22T08:22:22.613Z,97.1
2018-02-22T08:23:22.819Z,97.01
2018-02-22T08:24:22.794Z,96.54
2018-02-22T08:25:22.759Z,96.63
2018-02-22T08:26:22.727Z,96.73
2018-02-22T08:27:22.446Z,96.73
2018-02-22T08:28:22.662Z,96.54
2018-02-22T08:29:22.623Z,96.44
2018-02-22T08:30:22.589Z,96.16
2018-02-22T08:31:22.556Z,96.25
2018-02-22T08:32:22.530Z,96.44
2018-02-22T08:33:22.488Z,96.25
2018-02-22T08:34:22.774Z,96.35
2018-02-22T08:35:22.796Z,95.59
2018-02-22T08:36:23.151Z,95.97
2018-02-22T08:37:22.505Z,95.12
2018-02-22T08:38:22.343Z,95.78
2018-02-22T08:39:22.289Z,95.31
2018-02-22T08:40:22.256Z,95.4
2018-02-22T08:41:22.215Z,95.12
2018-02-22T08:42:22.185Z,95.31
2018-02-22T08:43:22.368Z,95.03
2018-02-22T08:44:23.233Z,94.93
2018-02-22T08:45:22.084Z,94.56
2018-02-22T08:46:22.074Z,94.37
2018-02-22T08:47:22.024Z,94.27
2018-02-22T08:48:21.984Z,94.37
2018-02-22T08:49:21.952Z,93.89
2018-02-22T08:50:21.916Z,94.27
2018-02-22T08:51:21.919Z,93.8
2018-02-22T08:52:21.849Z,93.7
2018-02-22T08:53:21.814Z,93.32
2018-02-22T08:54:21.785Z,93.47
2018-02-22T08:55:21.748Z,93.13
2018-02-22T08:56:21.945Z,93.23
2018-02-22T08:57:21.945Z,93.47
2018-02-22T08:58:21.651Z,92.9
2018-02-22T08:59:21.652Z,92.61
2018-02-22T09:00:21.584Z,92.9
2018-02-22T09:01:21.302Z,92.71
2018-02-22T09:02:21.516Z,92.71
2018-02-22T09:03:21.484Z,91.86
2018-02-22T09:04:21.450Z,92.05
2018-02-22T09:05:21.420Z,92.14
2018-02-22T09:06:21.385Z,92.05
2018-02-22T09:07:21.351Z,91.67
2018-02-22T09:08:21.071Z,91.86
2018-02-22T09:09:21.036Z,91.48
2018-02-22T09:10:21.251Z,91.01
2018-02-22T09:11:21.227Z,90.91
2018-02-22T09:12:21.880Z,91.29
2018-02-22T09:13:22.197Z,90.91
2018-02-22T09:14:21.547Z,90.44
2018-02-22T09:15:21.657Z,90.54
2018-02-22T09:16:21.233Z,90.44
2018-02-22T09:17:21.018Z,89.97
2018-02-22T09:18:21.382Z,90.35
2018-02-22T09:19:20.955Z,89.97
2018-02-22T09:20:20.924Z,89.97
2018-02-22T09:21:20.642Z,89.69
2018-02-22T09:22:20.856Z,89.69
2018-02-22T09:23:20.824Z,89.87
2018-02-22T09:24:20.787Z,89.4
2018-02-22T09:25:20.757Z,89.5
2018-02-22T09:26:20.740Z,89.12
2018-02-22T09:27:20.692Z,88.93
2018-02-22T09:28:20.660Z,88.65
2018-02-22T09:29:20.627Z,87.98
2018-02-22T09:30:20.597Z,88.41
2018-02-22T09:31:20.571Z,88.6
2018-02-22T09:32:20.282Z,88.6
2018-02-22T09:33:20.502Z,88.12
2018-02-22T09:34:20.465Z,87.93
2018-02-22T09:35:20.437Z,88.22
2018-02-22T09:36:20.399Z,87.93
2018-02-22T09:37:20.120Z,88.12
2018-02-22T09:38:20.376Z,87.55
2018-02-22T09:39:20.303Z,87.65
2018-02-22T09:40:20.268Z,87.18
2018-02-22T09:41:20.238Z,87.74
2018-02-22T09:42:20.203Z,87.55
2018-02-22T09:43:20.175Z,87.93
2018-02-22T09:44:20.142Z,87.18
2018-02-22T09:45:20.110Z,87.46
2018-02-22T09:46:20.088Z,87.18
2018-02-22T09:47:21.159Z,86.99
2018-02-22T09:48:20.354Z,86.42
2018-02-22T09:49:19.978Z,86.42
2018-02-22T09:50:20.007Z,86.61
2018-02-22T09:51:19.916Z,85.85
2018-02-22T09:52:19.881Z,85.95
2018-02-22T09:53:19.606Z,85.85
2018-02-22T09:54:19.977Z,85.28
2018-02-22T09:55:19.791Z,85.76
2018-02-22T09:56:19.823Z,85.61
2018-02-22T09:57:19.956Z,85.42
2018-02-22T09:58:19.698Z,85.52
2018-02-22T09:59:19.703Z,85.14
2018-02-22T10:00:19.632Z,84.39
2018-02-22T10:01:19.602Z,84.39
2018-02-22T10:02:19.570Z,84.01
2018-02-22T10:03:19.540Z,84.39
2018-02-22T10:04:19.502Z,84.01
2018-02-22T10:05:19.474Z,83.34
2018-02-22T10:06:19.455Z,83.25
2018-02-22T10:07:19.411Z,83.34
2018-02-22T10:08:19.377Z,83.25
2018-02-22T10:09:19.351Z,82.78
2018-02-22T10:10:19.317Z,83.25
2018-02-22T10:11:19.285Z,82.59
2018-02-22T10:12:19.258Z,82.12
2018-02-22T10:13:19.221Z,82.12
2018-02-22T10:14:19.190Z,81.83
2018-02-22T10:15:19.276Z,81.83
2018-02-22T10:16:19.127Z,81.55
2018-02-22T10:17:19.095Z,80.98
2018-02-22T10:18:19.731Z,81.36
2018-02-22T10:19:19.036Z,81.36
2018-02-22T10:20:18.753Z,81.74
2018-02-22T10:21:18.971Z,81.64
2018-02-22T10:22:18.940Z,81.07
2018-02-22T10:23:18.910Z,80.88
2018-02-22T10:24:18.627Z,80.69
2018-02-22T10:25:18.847Z,80.51
2018-02-22T10:26:18.824Z,80.79
2018-02-22T10:27:19.133Z,80.6
2018-02-22T10:28:18.917Z,79.94
2018-02-22T10:29:18.722Z,80.22
2018-02-22T10:30:18.693Z,79.56
2018-02-22T10:31:18.663Z,79.66
2018-02-22T10:32:18.630Z,79.66
2018-02-22T10:33:19.685Z,79.18
2018-02-22T10:34:19.364Z,79.18
2018-02-22T10:35:18.534Z,78.71
2018-02-22T10:36:18.504Z,78.9
2018-02-22T10:37:18.252Z,78.42
2018-02-22T10:38:18.440Z,78.18
2018-02-22T10:39:18.436Z,78.18
2018-02-22T10:40:18.432Z,77.8
2018-02-22T10:41:18.649Z,77.8
2018-02-22T10:42:18.318Z,77.51
2018-02-22T10:43:18.287Z,77.33
2018-02-22T10:44:18.260Z,77.14
2018-02-22T10:45:18.225Z,76.95
2018-02-22T10:46:18.192Z,76.76
2018-02-22T10:47:18.164Z,76.57
2018-02-22T10:48:18.131Z,75.05
2018-02-22T10:49:18.136Z,74.02
2018-02-22T10:50:18.083Z,73.16
2018-02-22T10:51:18.039Z,73.07
2018-02-22T10:52:17.758Z,72.69
2018-02-22T10:53:17.976Z,72.78
2018-02-22T10:54:17.946Z,72.5
2018-02-22T10:55:17.915Z,72.31
2018-02-22T10:56:17.637Z,72.31
2018-02-22T10:57:17.854Z,71.84
2018-02-22T10:58:17.575Z,70.98
2018-02-22T10:59:17.790Z,71.17
2018-02-22T11:00:17.761Z,71.08
2018-02-22T11:01:17.729Z,70.98
2018-02-22T11:02:17.709Z,70.89
2018-02-22T11:03:17.669Z,70.7
2018-02-22T11:04:17.637Z,70.89
2018-02-22T11:05:17.608Z,70.42
2018-02-22T11:06:17.580Z,69.95
2018-02-22T11:07:17.545Z,69.95
2018-02-22T11:08:17.522Z,70.04
2018-02-22T11:09:17.484Z,70.04
2018-02-22T11:10:17.454Z,69.85
2018-02-22T11:11:17.178Z,69.57
2018-02-22T11:12:17.396Z,68.81
2018-02-22T11:13:17.363Z,68.52
2018-02-22T11:14:17.335Z,68.56
2018-02-22T11:15:17.302Z,68.56
2018-02-22T11:16:17.272Z,68.43
2018-02-22T11:17:17.242Z,68.37
2018-02-22T11:18:17.210Z,68.37
2018-02-22T11:19:16.931Z,68.56
2018-02-22T11:20:17.151Z,68.37
2018-02-22T11:21:17.121Z,68.27
2018-02-22T11:22:17.088Z,68.08
2018-02-22T11:23:17.059Z,67.05
2018-02-22T11:24:17.031Z,67.14
2018-02-22T11:25:17.000Z,66.76
2018-02-22T11:26:16.972Z,66.38
2018-02-22T11:27:16.951Z,66.57
2018-02-22T11:28:16.916Z,66.76
2018-02-22T11:29:16.881Z,66.38
2018-02-22T11:30:16.849Z,66.86
2018-02-22T11:31:16.822Z,66.67
2018-02-22T11:32:16.788Z,66.67
2018-02-22T11:33:16.765Z,66.47
2018-02-22T11:34:16.737Z,66.67
2018-02-22T11:35:16.700Z,66.38
2018-02-22T11:36:16.674Z,65.91
2018-02-22T11:37:16.641Z,65.81
2018-02-22T11:38:16.614Z,66.19
2018-02-22T11:39:16.585Z,66.28
2018-02-22T11:40:16.550Z,65.91
2018-02-22T11:41:16.534Z,66.57
2018-02-22T11:42:16.494Z,66.76
2018-02-22T11:43:16.460Z,66.76
2018-02-22T11:44:16.432Z,66.76
2018-02-22T11:45:16.402Z,66.95
2018-02-22T11:46:16.373Z,66.19
2018-02-22T11:47:16.349Z,66
2018-02-22T11:48:16.315Z,65.63
2018-02-22T11:49:16.282Z,65.15
2018-02-22T11:50:16.258Z,65.25
2018-02-22T11:51:15.975Z,65.44
2018-02-22T11:52:16.192Z,65.34
2018-02-22T11:53:15.915Z,64.58
2018-02-22T11:54:16.135Z,64.77
2018-02-22T11:55:16.109Z,64.49
2018-02-22T11:56:16.075Z,64.49
2018-02-22T11:57:16.047Z,64.39
2018-02-22T11:58:16.058Z,64.3
2018-02-22T11:59:15.987Z,64.77
2018-02-22T12:00:15.957Z,64.77
2018-02-22T12:01:15.927Z,64.39
2018-02-22T12:02:15.905Z,64.49
2018-02-22T12:03:15.868Z,64.58
2018-02-22T12:04:15.843Z,64.58
2018-02-22T12:05:15.559Z,64.2
2018-02-22T12:06:15.779Z,63.54
2018-02-22T12:07:15.752Z,63.64
2018-02-22T12:08:15.721Z,63.64
2018-02-22T12:09:15.695Z,63.92
2018-02-22T12:10:15.661Z,63.82
2018-02-22T12:11:15.629Z,63.35
2018-02-22T12:12:15.605Z,63.54
2018-02-22T12:13:15.571Z,63.45
2018-02-22T12:14:15.545Z,63.64
2018-02-22T12:15:15.512Z,63.1
2018-02-22T12:16:15.481Z,63.1
2018-02-22T12:17:15.456Z,63.2
2018-02-22T12:18:15.429Z,62.72
2018-02-22T12:19:15.396Z,62.53
2018-02-22T12:20:15.366Z,62.05
2018-02-22T12:21:15.336Z,62.05
2018-02-22T12:22:15.308Z,62.15
2018-02-22T12:23:15.277Z,62.15
2018-02-22T12:24:15.250Z,62.05
2018-02-22T12:25:15.224Z,61.96
2018-02-22T12:26:15.195Z,61.77
2018-02-22T12:27:15.162Z,61.4
2018-02-22T12:28:15.134Z,60.83
2018-02-22T12:29:15.102Z,60.54
2018-02-22T12:30:14.829Z,60.64
2018-02-22T12:31:15.045Z,59.88
2018-02-22T12:32:15.019Z,59.97
2018-02-22T12:33:14.988Z,60.25
2018-02-22T12:34:14.952Z,59.88
2018-02-22T12:35:14.926Z,59.88
2018-02-22T12:36:14.902Z,59.88
2018-02-22T12:37:14.875Z,60.25
2018-02-22T12:38:14.838Z,60.16
2018-02-22T12:39:14.818Z,60.25
2018-02-22T12:40:14.792Z,60.25
2018-02-22T12:41:14.761Z,60.64
2018-02-22T12:42:14.726Z,60.54
2018-02-22T12:43:14.690Z,60.44
2018-02-22T12:44:14.664Z,60.25
2018-02-22T12:45:14.641Z,61.11
2018-02-22T12:46:14.661Z,60.83
2018-02-22T12:47:14.579Z,60.83
2018-02-22T12:48:14.549Z,60.73
2018-02-22T12:49:14.519Z,61.11
2018-02-22T12:50:14.488Z,60.25
2018-02-22T12:51:14.463Z,60.06
2018-02-22T12:52:14.442Z,59.97
2018-02-22T12:53:14.405Z,60.06
2018-02-22T12:54:14.374Z,60.25
2018-02-22T12:55:14.346Z,60.16
2018-02-22T12:56:14.319Z,60.25